sensor_id;sensor_type;location;lat;lon;timestamp;P1;durP1;ratioP1;P2;durP2;ratioP2
60582;SDS011;46415;47.536;19.066;2022-07-29T00:00:23;4.57;;;3.70;;
60582;SDS011;46415;47.536;19.066;2022-07-29T00:03:26;4.75;;;3.58;;
60582;SDS011;46415;47.536;19.066;2022-07-29T00:06:29;4.97;;;3.47;;
60582;SDS011;46415;47.536;19.066;2022-07-29T00:09:32;5.68;;;3.85;;
60582;SDS011;46415;47.536;19.066;2022-07-29T00:12:52;4.20;;;3.80;;
60582;SDS011;46415;47.536;19.066;2022-07-29T00:15:55;3.85;;;3.45;;
60582;SDS011;46415;47.536;19.066;2022-07-29T00:19:05;4.53;;;3.75;;
60582;SDS011;46415;47.536;19.066;2022-07-29T00:22:09;4.93;;;3.50;;
60582;SDS011;46415;47.536;19.066;2022-07-29T00:25:12;4.45;;;3.60;;
60582;SDS011;46415;47.536;19.066;2022-07-29T00:28:15;4.53;;;3.58;;
60582;SDS011;46415;47.536;19.066;2022-07-29T00:31:17;3.95;;;3.60;;
60582;SDS011;46415;47.536;19.066;2022-07-29T00:34:21;4.20;;;3.30;;
60582;SDS011;46415;47.536;19.066;2022-07-29T00:37:42;4.18;;;3.72;;
60582;SDS011;46415;47.536;19.066;2022-07-29T00:40:46;6.60;;;3.80;;
60582;SDS011;46415;47.536;19.066;2022-07-29T00:43:49;4.65;;;3.60;;
60582;SDS011;46415;47.536;19.066;2022-07-29T00:46:52;4.28;;;3.87;;
60582;SDS011;46415;47.536;19.066;2022-07-29T00:49:54;4.70;;;3.53;;
60582;SDS011;46415;47.536;19.066;2022-07-29T00:52:57;3.80;;;3.40;;
60582;SDS011;46415;47.536;19.066;2022-07-29T00:56:01;4.62;;;3.95;;
60582;SDS011;46415;47.536;19.066;2022-07-29T00:59:04;5.55;;;3.70;;
60582;SDS011;46415;47.536;19.066;2022-07-29T01:02:06;4.60;;;3.67;;
60582;SDS011;46415;47.536;19.066;2022-07-29T01:05:09;5.20;;;3.65;;
60582;SDS011;46415;47.536;19.066;2022-07-29T01:08:13;4.45;;;4.00;;
60582;SDS011;46415;47.536;19.066;2022-07-29T01:11:18;3.87;;;3.58;;
60582;SDS011;46415;47.536;19.066;2022-07-29T01:14:21;5.28;;;3.90;;
60582;SDS011;46415;47.536;19.066;2022-07-29T01:25:03;4.45;;;3.90;;
60582;SDS011;46415;47.536;19.066;2022-07-29T01:28:47;4.60;;;3.92;;
60582;SDS011;46415;47.536;19.066;2022-07-29T01:32:13;3.95;;;3.60;;
60582;SDS011;46415;47.536;19.066;2022-07-29T01:35:38;4.90;;;3.80;;
60582;SDS011;46415;47.536;19.066;2022-07-29T01:38:42;4.28;;;3.80;;
60582;SDS011;46415;47.536;19.066;2022-07-29T01:49:29;4.25;;;3.85;;
60582;SDS011;46415;47.536;19.066;2022-07-29T01:52:16;3.87;;;3.58;;
60582;SDS011;46415;47.536;19.066;2022-07-29T01:55:25;4.12;;;3.70;;
60582;SDS011;46415;47.536;19.066;2022-07-29T01:58:31;4.63;;;3.97;;
60582;SDS011;46415;47.536;19.066;2022-07-29T02:01:35;8.82;;;3.92;;
60582;SDS011;46415;47.536;19.066;2022-07-29T02:04:40;5.28;;;3.65;;
60582;SDS011;46415;47.536;19.066;2022-07-29T02:07:46;4.12;;;3.83;;
60582;SDS011;46415;47.536;19.066;2022-07-29T02:10:50;3.87;;;3.40;;
60582;SDS011;46415;47.536;19.066;2022-07-29T02:13:55;4.65;;;4.00;;
60582;SDS011;46415;47.536;19.066;2022-07-29T02:17:00;4.00;;;3.67;;
60582;SDS011;46415;47.536;19.066;2022-07-29T02:20:05;4.00;;;3.60;;
60582;SDS011;46415;47.536;19.066;2022-07-29T02:23:09;4.87;;;3.78;;
60582;SDS011;46415;47.536;19.066;2022-07-29T02:26:13;4.07;;;3.60;;
60582;SDS011;46415;47.536;19.066;2022-07-29T02:29:18;4.15;;;3.80;;
60582;SDS011;46415;47.536;19.066;2022-07-29T02:32:26;5.20;;;4.00;;
60582;SDS011;46415;47.536;19.066;2022-07-29T02:35:30;4.78;;;4.20;;
60582;SDS011;46415;47.536;19.066;2022-07-29T02:38:36;5.93;;;3.87;;
60582;SDS011;46415;47.536;19.066;2022-07-29T02:42:10;4.53;;;3.90;;
60582;SDS011;46415;47.536;19.066;2022-07-29T02:45:15;3.97;;;3.67;;
60582;SDS011;46415;47.536;19.066;2022-07-29T02:48:18;4.62;;;3.90;;
60582;SDS011;46415;47.536;19.066;2022-07-29T02:52:04;6.62;;;4.12;;
60582;SDS011;46415;47.536;19.066;2022-07-29T02:58:17;4.68;;;4.25;;
60582;SDS011;46415;47.536;19.066;2022-07-29T03:04:27;5.47;;;3.80;;
60582;SDS011;46415;47.536;19.066;2022-07-29T03:07:33;4.28;;;3.97;;
60582;SDS011;46415;47.536;19.066;2022-07-29T03:10:37;4.10;;;3.80;;
60582;SDS011;46415;47.536;19.066;2022-07-29T03:13:42;4.45;;;4.05;;
60582;SDS011;46415;47.536;19.066;2022-07-29T03:16:46;4.50;;;4.10;;
60582;SDS011;46415;47.536;19.066;2022-07-29T03:19:50;4.15;;;3.83;;
60582;SDS011;46415;47.536;19.066;2022-07-29T03:22:52;4.55;;;4.15;;
60582;SDS011;46415;47.536;19.066;2022-07-29T03:25:55;4.10;;;3.80;;
60582;SDS011;46415;47.536;19.066;2022-07-29T03:28:59;4.72;;;4.20;;
60582;SDS011;46415;47.536;19.066;2022-07-29T03:32:03;7.37;;;4.25;;
60582;SDS011;46415;47.536;19.066;2022-07-29T03:35:09;4.22;;;3.90;;
60582;SDS011;46415;47.536;19.066;2022-07-29T03:38:12;4.62;;;4.25;;
60582;SDS011;46415;47.536;19.066;2022-07-29T03:41:15;4.72;;;4.32;;
60582;SDS011;46415;47.536;19.066;2022-07-29T03:44:24;6.28;;;4.30;;
60582;SDS011;46415;47.536;19.066;2022-07-29T03:47:28;4.50;;;4.10;;
60582;SDS011;46415;47.536;19.066;2022-07-29T03:50:53;4.68;;;4.28;;
60582;SDS011;46415;47.536;19.066;2022-07-29T03:53:55;5.15;;;4.22;;
60582;SDS011;46415;47.536;19.066;2022-07-29T03:56:59;7.03;;;4.85;;
60582;SDS011;46415;47.536;19.066;2022-07-29T04:00:04;11.25;;;5.45;;
60582;SDS011;46415;47.536;19.066;2022-07-29T04:03:08;9.00;;;5.57;;
60582;SDS011;46415;47.536;19.066;2022-07-29T04:06:12;5.85;;;4.20;;
60582;SDS011;46415;47.536;19.066;2022-07-29T04:09:15;8.10;;;4.47;;
60582;SDS011;46415;47.536;19.066;2022-07-29T04:12:18;6.30;;;4.28;;
60582;SDS011;46415;47.536;19.066;2022-07-29T04:15:21;5.00;;;4.50;;
60582;SDS011;46415;47.536;19.066;2022-07-29T04:18:23;5.12;;;4.50;;
60582;SDS011;46415;47.536;19.066;2022-07-29T04:21:27;5.72;;;4.15;;
60582;SDS011;46415;47.536;19.066;2022-07-29T04:24:29;6.85;;;4.53;;
60582;SDS011;46415;47.536;19.066;2022-07-29T04:27:32;6.80;;;4.65;;
60582;SDS011;46415;47.536;19.066;2022-07-29T04:30:35;5.07;;;4.57;;
60582;SDS011;46415;47.536;19.066;2022-07-29T04:33:39;5.07;;;4.32;;
60582;SDS011;46415;47.536;19.066;2022-07-29T04:36:42;5.12;;;4.40;;
60582;SDS011;46415;47.536;19.066;2022-07-29T04:39:44;4.53;;;4.12;;
60582;SDS011;46415;47.536;19.066;2022-07-29T04:42:47;5.53;;;4.87;;
60582;SDS011;46415;47.536;19.066;2022-07-29T04:45:50;4.90;;;4.50;;
60582;SDS011;46415;47.536;19.066;2022-07-29T04:48:53;4.35;;;3.95;;
60582;SDS011;46415;47.536;19.066;2022-07-29T04:51:56;5.95;;;5.07;;
60582;SDS011;46415;47.536;19.066;2022-07-29T04:55:00;11.23;;;5.07;;
60582;SDS011;46415;47.536;19.066;2022-07-29T04:58:03;5.93;;;4.85;;
60582;SDS011;46415;47.536;19.066;2022-07-29T05:01:05;5.72;;;4.90;;
60582;SDS011;46415;47.536;19.066;2022-07-29T05:04:08;7.57;;;4.57;;
60582;SDS011;46415;47.536;19.066;2022-07-29T05:07:11;5.80;;;4.60;;
60582;SDS011;46415;47.536;19.066;2022-07-29T05:10:14;5.07;;;4.30;;
60582;SDS011;46415;47.536;19.066;2022-07-29T05:13:16;6.15;;;4.75;;
60582;SDS011;46415;47.536;19.066;2022-07-29T05:16:19;5.00;;;4.60;;
60582;SDS011;46415;47.536;19.066;2022-07-29T05:19:22;5.25;;;4.45;;
60582;SDS011;46415;47.536;19.066;2022-07-29T05:22:25;8.00;;;4.93;;
60582;SDS011;46415;47.536;19.066;2022-07-29T05:25:28;4.80;;;4.37;;
60582;SDS011;46415;47.536;19.066;2022-07-29T05:28:45;5.27;;;4.33;;
60582;SDS011;46415;47.536;19.066;2022-07-29T05:31:47;5.45;;;4.90;;
60582;SDS011;46415;47.536;19.066;2022-07-29T05:34:50;4.65;;;4.25;;
60582;SDS011;46415;47.536;19.066;2022-07-29T05:37:53;6.55;;;4.80;;
60582;SDS011;46415;47.536;19.066;2022-07-29T05:40:56;4.72;;;4.30;;
60582;SDS011;46415;47.536;19.066;2022-07-29T05:44:00;5.07;;;4.57;;
60582;SDS011;46415;47.536;19.066;2022-07-29T05:47:03;5.22;;;4.80;;
60582;SDS011;46415;47.536;19.066;2022-07-29T05:50:06;5.10;;;4.50;;
60582;SDS011;46415;47.536;19.066;2022-07-29T05:53:09;5.97;;;4.55;;
60582;SDS011;46415;47.536;19.066;2022-07-29T05:56:21;7.22;;;4.65;;
60582;SDS011;46415;47.536;19.066;2022-07-29T05:59:24;9.23;;;4.47;;
60582;SDS011;46415;47.536;19.066;2022-07-29T06:02:31;5.35;;;4.28;;
60582;SDS011;46415;47.536;19.066;2022-07-29T06:05:34;11.52;;;4.62;;
60582;SDS011;46415;47.536;19.066;2022-07-29T06:08:37;7.12;;;4.68;;
60582;SDS011;46415;47.536;19.066;2022-07-29T06:11:40;6.05;;;4.15;;
60582;SDS011;46415;47.536;19.066;2022-07-29T06:14:43;7.75;;;4.87;;
60582;SDS011;46415;47.536;19.066;2022-07-29T06:17:46;6.82;;;4.85;;
60582;SDS011;46415;47.536;19.066;2022-07-29T06:21:01;5.20;;;4.55;;
60582;SDS011;46415;47.536;19.066;2022-07-29T06:24:04;8.95;;;4.65;;
60582;SDS011;46415;47.536;19.066;2022-07-29T06:27:07;4.68;;;4.28;;
60582;SDS011;46415;47.536;19.066;2022-07-29T06:30:10;5.53;;;4.57;;
60582;SDS011;46415;47.536;19.066;2022-07-29T06:33:17;5.10;;;4.65;;
60582;SDS011;46415;47.536;19.066;2022-07-29T06:36:21;6.50;;;4.40;;
60582;SDS011;46415;47.536;19.066;2022-07-29T06:39:26;4.65;;;4.25;;
60582;SDS011;46415;47.536;19.066;2022-07-29T06:42:30;6.53;;;4.60;;
60582;SDS011;46415;47.536;19.066;2022-07-29T06:45:36;6.82;;;4.57;;
60582;SDS011;46415;47.536;19.066;2022-07-29T06:48:39;6.45;;;4.62;;
60582;SDS011;46415;47.536;19.066;2022-07-29T06:51:44;6.37;;;4.80;;
60582;SDS011;46415;47.536;19.066;2022-07-29T06:54:47;6.80;;;5.20;;
60582;SDS011;46415;47.536;19.066;2022-07-29T06:57:50;4.78;;;4.37;;
60582;SDS011;46415;47.536;19.066;2022-07-29T07:00:54;5.00;;;4.37;;
60582;SDS011;46415;47.536;19.066;2022-07-29T07:04:00;5.50;;;4.15;;
60582;SDS011;46415;47.536;19.066;2022-07-29T07:07:03;5.00;;;4.50;;
60582;SDS011;46415;47.536;19.066;2022-07-29T07:10:05;5.85;;;4.70;;
60582;SDS011;46415;47.536;19.066;2022-07-29T07:13:09;8.38;;;4.68;;
60582;SDS011;46415;47.536;19.066;2022-07-29T07:16:12;7.60;;;4.40;;
60582;SDS011;46415;47.536;19.066;2022-07-29T07:19:15;9.40;;;4.90;;
60582;SDS011;46415;47.536;19.066;2022-07-29T07:22:18;5.43;;;4.40;;
60582;SDS011;46415;47.536;19.066;2022-07-29T07:25:22;8.80;;;4.87;;
60582;SDS011;46415;47.536;19.066;2022-07-29T07:28:25;8.20;;;4.40;;
60582;SDS011;46415;47.536;19.066;2022-07-29T07:31:28;7.50;;;4.97;;
60582;SDS011;46415;47.536;19.066;2022-07-29T07:34:30;7.07;;;4.57;;
60582;SDS011;46415;47.536;19.066;2022-07-29T07:37:33;5.85;;;4.20;;
60582;SDS011;46415;47.536;19.066;2022-07-29T07:40:36;5.45;;;4.55;;
60582;SDS011;46415;47.536;19.066;2022-07-29T07:43:39;5.72;;;4.35;;
60582;SDS011;46415;47.536;19.066;2022-07-29T07:46:42;6.18;;;4.70;;
60582;SDS011;46415;47.536;19.066;2022-07-29T07:49:47;4.80;;;4.37;;
60582;SDS011;46415;47.536;19.066;2022-07-29T07:52:50;6.32;;;4.55;;
60582;SDS011;46415;47.536;19.066;2022-07-29T07:55:55;6.75;;;4.78;;
60582;SDS011;46415;47.536;19.066;2022-07-29T07:59:14;8.63;;;4.43;;
60582;SDS011;46415;47.536;19.066;2022-07-29T08:02:16;4.30;;;3.95;;
60582;SDS011;46415;47.536;19.066;2022-07-29T08:05:19;6.80;;;4.72;;
60582;SDS011;46415;47.536;19.066;2022-07-29T08:08:22;4.75;;;4.25;;
60582;SDS011;46415;47.536;19.066;2022-07-29T08:11:25;6.95;;;4.50;;
60582;SDS011;46415;47.536;19.066;2022-07-29T08:14:29;5.45;;;4.65;;
60582;SDS011;46415;47.536;19.066;2022-07-29T08:17:33;5.90;;;4.60;;
60582;SDS011;46415;47.536;19.066;2022-07-29T08:20:36;4.70;;;4.30;;
60582;SDS011;46415;47.536;19.066;2022-07-29T08:23:41;5.28;;;4.82;;
60582;SDS011;46415;47.536;19.066;2022-07-29T08:26:54;6.72;;;4.12;;
60582;SDS011;46415;47.536;19.066;2022-07-29T08:29:56;4.70;;;4.30;;
60582;SDS011;46415;47.536;19.066;2022-07-29T08:32:59;4.35;;;3.95;;
60582;SDS011;46415;47.536;19.066;2022-07-29T08:36:03;6.68;;;4.55;;
60582;SDS011;46415;47.536;19.066;2022-07-29T08:39:05;6.30;;;4.72;;
60582;SDS011;46415;47.536;19.066;2022-07-29T08:42:08;6.70;;;4.70;;
60582;SDS011;46415;47.536;19.066;2022-07-29T08:45:12;5.53;;;4.47;;
60582;SDS011;46415;47.536;19.066;2022-07-29T08:48:17;5.18;;;4.40;;
60582;SDS011;46415;47.536;19.066;2022-07-29T08:51:24;4.70;;;4.30;;
60582;SDS011;46415;47.536;19.066;2022-07-29T08:54:30;4.87;;;4.47;;
60582;SDS011;46415;47.536;19.066;2022-07-29T08:57:33;4.75;;;4.30;;
60582;SDS011;46415;47.536;19.066;2022-07-29T09:00:41;5.80;;;4.32;;
60582;SDS011;46415;47.536;19.066;2022-07-29T09:03:50;8.02;;;4.43;;
60582;SDS011;46415;47.536;19.066;2022-07-29T09:10:03;4.72;;;4.30;;
60582;SDS011;46415;47.536;19.066;2022-07-29T09:13:07;5.68;;;4.40;;
60582;SDS011;46415;47.536;19.066;2022-07-29T09:16:10;4.80;;;4.30;;
60582;SDS011;46415;47.536;19.066;2022-07-29T09:22:46;6.05;;;4.57;;
60582;SDS011;46415;47.536;19.066;2022-07-29T09:25:53;5.30;;;4.45;;
60582;SDS011;46415;47.536;19.066;2022-07-29T09:28:56;6.32;;;4.00;;
60582;SDS011;46415;47.536;19.066;2022-07-29T09:32:00;8.32;;;4.65;;
60582;SDS011;46415;47.536;19.066;2022-07-29T09:38:18;4.87;;;4.40;;
60582;SDS011;46415;47.536;19.066;2022-07-29T09:41:21;5.78;;;4.35;;
60582;SDS011;46415;47.536;19.066;2022-07-29T09:44:24;4.75;;;4.03;;
60582;SDS011;46415;47.536;19.066;2022-07-29T09:47:39;4.62;;;4.22;;
60582;SDS011;46415;47.536;19.066;2022-07-29T09:50:51;4.68;;;4.00;;
60582;SDS011;46415;47.536;19.066;2022-07-29T09:53:54;5.12;;;4.12;;
60582;SDS011;46415;47.536;19.066;2022-07-29T09:56:57;5.10;;;4.07;;
60582;SDS011;46415;47.536;19.066;2022-07-29T10:00:04;4.65;;;4.25;;
60582;SDS011;46415;47.536;19.066;2022-07-29T10:03:13;6.82;;;3.90;;
60582;SDS011;46415;47.536;19.066;2022-07-29T10:06:17;6.12;;;4.15;;
60582;SDS011;46415;47.536;19.066;2022-07-29T10:09:19;4.35;;;4.00;;
60582;SDS011;46415;47.536;19.066;2022-07-29T10:12:26;5.28;;;4.30;;
60582;SDS011;46415;47.536;19.066;2022-07-29T10:15:30;6.15;;;3.37;;
60582;SDS011;46415;47.536;19.066;2022-07-29T10:18:35;4.47;;;4.07;;
60582;SDS011;46415;47.536;19.066;2022-07-29T10:21:39;4.22;;;3.55;;
60582;SDS011;46415;47.536;19.066;2022-07-29T10:24:45;5.32;;;3.95;;
60582;SDS011;46415;47.536;19.066;2022-07-29T10:27:48;3.65;;;3.37;;
60582;SDS011;46415;47.536;19.066;2022-07-29T10:30:58;4.22;;;3.83;;
60582;SDS011;46415;47.536;19.066;2022-07-29T10:34:13;4.40;;;3.67;;
60582;SDS011;46415;47.536;19.066;2022-07-29T10:44:48;5.32;;;3.47;;
60582;SDS011;46415;47.536;19.066;2022-07-29T10:48:02;4.07;;;3.78;;
60582;SDS011;46415;47.536;19.066;2022-07-29T10:51:09;4.70;;;3.58;;
60582;SDS011;46415;47.536;19.066;2022-07-29T10:54:13;5.45;;;3.55;;
60582;SDS011;46415;47.536;19.066;2022-07-29T10:57:28;3.67;;;3.42;;
60582;SDS011;46415;47.536;19.066;2022-07-29T11:00:53;3.62;;;3.30;;
60582;SDS011;46415;47.536;19.066;2022-07-29T11:03:57;4.57;;;3.33;;
60582;SDS011;46415;47.536;19.066;2022-07-29T11:16:58;4.37;;;3.72;;
60582;SDS011;46415;47.536;19.066;2022-07-29T11:23:39;3.60;;;3.30;;
60582;SDS011;46415;47.536;19.066;2022-07-29T11:30:20;3.62;;;3.30;;
60582;SDS011;46415;47.536;19.066;2022-07-29T11:33:27;3.60;;;3.25;;
60582;SDS011;46415;47.536;19.066;2022-07-29T11:40:09;4.70;;;3.20;;
60582;SDS011;46415;47.536;19.066;2022-07-29T11:43:23;4.37;;;3.37;;
60582;SDS011;46415;47.536;19.066;2022-07-29T11:47:10;4.45;;;2.90;;
60582;SDS011;46415;47.536;19.066;2022-07-29T11:50:17;4.30;;;2.93;;
60582;SDS011;46415;47.536;19.066;2022-07-29T11:53:48;3.35;;;3.08;;
60582;SDS011;46415;47.536;19.066;2022-07-29T11:56:54;3.22;;;2.92;;
60582;SDS011;46415;47.536;19.066;2022-07-29T11:59:57;4.25;;;2.90;;
60582;SDS011;46415;47.536;19.066;2022-07-29T12:03:11;3.95;;;2.85;;
60582;SDS011;46415;47.536;19.066;2022-07-29T12:06:13;3.22;;;3.03;;
60582;SDS011;46415;47.536;19.066;2022-07-29T12:09:36;3.30;;;3.00;;
60582;SDS011;46415;47.536;19.066;2022-07-29T12:12:42;4.57;;;3.00;;
60582;SDS011;46415;47.536;19.066;2022-07-29T12:15:56;3.45;;;3.15;;
60582;SDS011;46415;47.536;19.066;2022-07-29T12:19:01;3.37;;;3.00;;
60582;SDS011;46415;47.536;19.066;2022-07-29T12:22:05;3.12;;;2.83;;
60582;SDS011;46415;47.536;19.066;2022-07-29T12:25:11;3.05;;;2.75;;
60582;SDS011;46415;47.536;19.066;2022-07-29T12:28:37;3.30;;;3.05;;
60582;SDS011;46415;47.536;19.066;2022-07-29T12:31:41;6.00;;;3.40;;
60582;SDS011;46415;47.536;19.066;2022-07-29T12:34:47;3.85;;;3.20;;
60582;SDS011;46415;47.536;19.066;2022-07-29T12:37:50;3.42;;;3.22;;
60582;SDS011;46415;47.536;19.066;2022-07-29T12:40:57;5.75;;;2.97;;
60582;SDS011;46415;47.536;19.066;2022-07-29T12:43:59;3.40;;;3.10;;
60582;SDS011;46415;47.536;19.066;2022-07-29T12:47:03;12.82;;;3.80;;
60582;SDS011;46415;47.536;19.066;2022-07-29T12:50:13;5.53;;;3.25;;
60582;SDS011;46415;47.536;19.066;2022-07-29T12:53:24;5.18;;;3.00;;
60582;SDS011;46415;47.536;19.066;2022-07-29T12:56:28;4.32;;;3.15;;
60582;SDS011;46415;47.536;19.066;2022-07-29T13:03:23;3.83;;;3.20;;
60582;SDS011;46415;47.536;19.066;2022-07-29T13:06:33;6.72;;;3.47;;
60582;SDS011;46415;47.536;19.066;2022-07-29T13:09:40;3.53;;;3.08;;
60582;SDS011;46415;47.536;19.066;2022-07-29T13:13:05;3.47;;;3.05;;
60582;SDS011;46415;47.536;19.066;2022-07-29T13:16:17;3.70;;;2.85;;
60582;SDS011;46415;47.536;19.066;2022-07-29T13:19:31;3.60;;;3.30;;
60582;SDS011;46415;47.536;19.066;2022-07-29T13:22:36;4.40;;;4.00;;
60582;SDS011;46415;47.536;19.066;2022-07-29T13:25:39;3.22;;;3.03;;
60582;SDS011;46415;47.536;19.066;2022-07-29T13:28:42;3.53;;;3.22;;
60582;SDS011;46415;47.536;19.066;2022-07-29T13:31:45;3.58;;;3.28;;
60582;SDS011;46415;47.536;19.066;2022-07-29T13:34:48;3.25;;;3.05;;
60582;SDS011;46415;47.536;19.066;2022-07-29T13:37:51;3.65;;;3.30;;
60582;SDS011;46415;47.536;19.066;2022-07-29T13:40:54;3.65;;;3.20;;
60582;SDS011;46415;47.536;19.066;2022-07-29T13:43:57;3.35;;;3.00;;
60582;SDS011;46415;47.536;19.066;2022-07-29T13:47:00;5.30;;;3.40;;
60582;SDS011;46415;47.536;19.066;2022-07-29T13:50:03;3.35;;;3.10;;
60582;SDS011;46415;47.536;19.066;2022-07-29T13:53:08;4.20;;;2.90;;
60582;SDS011;46415;47.536;19.066;2022-07-29T13:56:18;6.35;;;3.45;;
60582;SDS011;46415;47.536;19.066;2022-07-29T13:59:21;5.22;;;3.17;;
60582;SDS011;46415;47.536;19.066;2022-07-29T14:02:24;3.75;;;3.22;;
60582;SDS011;46415;47.536;19.066;2022-07-29T14:05:27;4.05;;;3.10;;
60582;SDS011;46415;47.536;19.066;2022-07-29T14:08:30;5.53;;;3.37;;
60582;SDS011;46415;47.536;19.066;2022-07-29T14:11:33;3.10;;;2.90;;
60582;SDS011;46415;47.536;19.066;2022-07-29T14:14:35;3.22;;;2.95;;
60582;SDS011;46415;47.536;19.066;2022-07-29T14:17:39;3.53;;;3.22;;
60582;SDS011;46415;47.536;19.066;2022-07-29T14:20:41;4.85;;;3.20;;
60582;SDS011;46415;47.536;19.066;2022-07-29T14:23:44;3.50;;;3.20;;
60582;SDS011;46415;47.536;19.066;2022-07-29T14:26:47;3.25;;;2.95;;
60582;SDS011;46415;47.536;19.066;2022-07-29T14:29:50;3.80;;;2.95;;
60582;SDS011;46415;47.536;19.066;2022-07-29T14:32:53;3.67;;;2.97;;
60582;SDS011;46415;47.536;19.066;2022-07-29T14:35:56;4.57;;;3.15;;
60582;SDS011;46415;47.536;19.066;2022-07-29T14:39:02;4.68;;;3.37;;
60582;SDS011;46415;47.536;19.066;2022-07-29T14:42:06;3.10;;;2.80;;
60582;SDS011;46415;47.536;19.066;2022-07-29T14:45:10;3.50;;;3.20;;
60582;SDS011;46415;47.536;19.066;2022-07-29T14:48:13;3.70;;;3.35;;
60582;SDS011;46415;47.536;19.066;2022-07-29T14:51:15;3.47;;;3.25;;
60582;SDS011;46415;47.536;19.066;2022-07-29T14:54:18;3.42;;;3.22;;
60582;SDS011;46415;47.536;19.066;2022-07-29T14:57:21;4.10;;;3.70;;
60582;SDS011;46415;47.536;19.066;2022-07-29T15:00:25;4.50;;;3.22;;
60582;SDS011;46415;47.536;19.066;2022-07-29T15:03:28;4.68;;;3.60;;
60582;SDS011;46415;47.536;19.066;2022-07-29T15:06:35;4.32;;;3.42;;
60582;SDS011;46415;47.536;19.066;2022-07-29T15:09:38;3.60;;;3.30;;
60582;SDS011;46415;47.536;19.066;2022-07-29T15:12:51;4.37;;;3.28;;
60582;SDS011;46415;47.536;19.066;2022-07-29T15:15:54;3.83;;;3.33;;
60582;SDS011;46415;47.536;19.066;2022-07-29T15:19:02;3.25;;;2.97;;
60582;SDS011;46415;47.536;19.066;2022-07-29T15:22:04;3.78;;;3.10;;
60582;SDS011;46415;47.536;19.066;2022-07-29T15:25:08;5.93;;;3.12;;
60582;SDS011;46415;47.536;19.066;2022-07-29T15:28:11;3.28;;;2.97;;
60582;SDS011;46415;47.536;19.066;2022-07-29T15:31:14;3.42;;;3.22;;
60582;SDS011;46415;47.536;19.066;2022-07-29T15:34:16;3.90;;;3.60;;
60582;SDS011;46415;47.536;19.066;2022-07-29T15:37:19;6.25;;;3.37;;
60582;SDS011;46415;47.536;19.066;2022-07-29T15:40:24;3.80;;;3.50;;
60582;SDS011;46415;47.536;19.066;2022-07-29T15:43:26;3.45;;;3.15;;
60582;SDS011;46415;47.536;19.066;2022-07-29T15:46:29;3.08;;;2.87;;
60582;SDS011;46415;47.536;19.066;2022-07-29T15:49:50;4.00;;;3.58;;
60582;SDS011;46415;47.536;19.066;2022-07-29T15:52:53;4.85;;;3.53;;
60582;SDS011;46415;47.536;19.066;2022-07-29T15:55:56;4.18;;;3.87;;
60582;SDS011;46415;47.536;19.066;2022-07-29T15:58:58;4.30;;;4.00;;
60582;SDS011;46415;47.536;19.066;2022-07-29T16:02:02;4.25;;;3.80;;
60582;SDS011;46415;47.536;19.066;2022-07-29T16:05:05;3.92;;;3.62;;
60582;SDS011;46415;47.536;19.066;2022-07-29T16:08:10;5.20;;;3.62;;
60582;SDS011;46415;47.536;19.066;2022-07-29T16:11:13;3.95;;;3.60;;
60582;SDS011;46415;47.536;19.066;2022-07-29T16:14:16;3.83;;;3.62;;
60582;SDS011;46415;47.536;19.066;2022-07-29T16:17:19;3.70;;;3.40;;
60582;SDS011;46415;47.536;19.066;2022-07-29T16:20:22;4.22;;;3.33;;
60582;SDS011;46415;47.536;19.066;2022-07-29T16:23:25;3.83;;;3.53;;
60582;SDS011;46415;47.536;19.066;2022-07-29T16:26:27;3.70;;;3.40;;
60582;SDS011;46415;47.536;19.066;2022-07-29T16:29:31;5.45;;;3.33;;
60582;SDS011;46415;47.536;19.066;2022-07-29T16:32:33;3.30;;;3.10;;
60582;SDS011;46415;47.536;19.066;2022-07-29T16:35:36;3.25;;;3.00;;
60582;SDS011;46415;47.536;19.066;2022-07-29T16:38:41;3.70;;;3.40;;
60582;SDS011;46415;47.536;19.066;2022-07-29T16:41:48;3.30;;;3.08;;
60582;SDS011;46415;47.536;19.066;2022-07-29T16:44:51;3.40;;;3.20;;
60582;SDS011;46415;47.536;19.066;2022-07-29T16:47:54;4.07;;;3.70;;
60582;SDS011;46415;47.536;19.066;2022-07-29T16:51:02;3.78;;;3.42;;
60582;SDS011;46415;47.536;19.066;2022-07-29T16:54:05;3.30;;;3.00;;
60582;SDS011;46415;47.536;19.066;2022-07-29T16:57:07;5.72;;;3.65;;
60582;SDS011;46415;47.536;19.066;2022-07-29T17:00:10;6.00;;;3.33;;
60582;SDS011;46415;47.536;19.066;2022-07-29T17:03:14;4.07;;;3.45;;
60582;SDS011;46415;47.536;19.066;2022-07-29T17:06:17;4.97;;;3.60;;
60582;SDS011;46415;47.536;19.066;2022-07-29T17:09:19;4.05;;;3.65;;
60582;SDS011;46415;47.536;19.066;2022-07-29T17:12:22;3.55;;;3.20;;
60582;SDS011;46415;47.536;19.066;2022-07-29T17:15:25;4.07;;;3.70;;
60582;SDS011;46415;47.536;19.066;2022-07-29T17:18:28;3.75;;;3.42;;
60582;SDS011;46415;47.536;19.066;2022-07-29T17:21:31;3.67;;;3.25;;
60582;SDS011;46415;47.536;19.066;2022-07-29T17:24:34;3.90;;;3.60;;
60582;SDS011;46415;47.536;19.066;2022-07-29T17:27:36;6.68;;;3.83;;
60582;SDS011;46415;47.536;19.066;2022-07-29T17:30:39;4.30;;;3.80;;
60582;SDS011;46415;47.536;19.066;2022-07-29T17:33:42;5.37;;;3.72;;
60582;SDS011;46415;47.536;19.066;2022-07-29T17:36:45;4.22;;;3.72;;
60582;SDS011;46415;47.536;19.066;2022-07-29T17:39:47;6.30;;;3.67;;
60582;SDS011;46415;47.536;19.066;2022-07-29T17:42:50;5.80;;;4.00;;
60582;SDS011;46415;47.536;19.066;2022-07-29T17:45:53;6.07;;;3.50;;
60582;SDS011;46415;47.536;19.066;2022-07-29T17:49:00;6.93;;;3.80;;
60582;SDS011;46415;47.536;19.066;2022-07-29T17:52:03;4.15;;;3.60;;
60582;SDS011;46415;47.536;19.066;2022-07-29T17:55:07;5.35;;;3.55;;
60582;SDS011;46415;47.536;19.066;2022-07-29T17:58:11;4.03;;;3.62;;
60582;SDS011;46415;47.536;19.066;2022-07-29T18:01:14;6.07;;;3.62;;
60582;SDS011;46415;47.536;19.066;2022-07-29T18:04:17;3.78;;;3.47;;
60582;SDS011;46415;47.536;19.066;2022-07-29T18:07:24;5.00;;;3.87;;
60582;SDS011;46415;47.536;19.066;2022-07-29T18:10:27;4.30;;;3.90;;
60582;SDS011;46415;47.536;19.066;2022-07-29T18:13:29;4.20;;;3.75;;
60582;SDS011;46415;47.536;19.066;2022-07-29T18:16:32;4.28;;;3.80;;
60582;SDS011;46415;47.536;19.066;2022-07-29T18:19:35;6.05;;;3.83;;
60582;SDS011;46415;47.536;19.066;2022-07-29T18:22:38;4.25;;;3.85;;
60582;SDS011;46415;47.536;19.066;2022-07-29T18:25:40;4.40;;;4.00;;
60582;SDS011;46415;47.536;19.066;2022-07-29T18:28:43;5.00;;;4.10;;
60582;SDS011;46415;47.536;19.066;2022-07-29T18:31:46;6.07;;;3.90;;
60582;SDS011;46415;47.536;19.066;2022-07-29T18:34:49;5.55;;;3.78;;
60582;SDS011;46415;47.536;19.066;2022-07-29T18:37:51;5.30;;;4.30;;
60582;SDS011;46415;47.536;19.066;2022-07-29T18:41:04;5.45;;;3.87;;
60582;SDS011;46415;47.536;19.066;2022-07-29T18:44:06;9.77;;;4.25;;
60582;SDS011;46415;47.536;19.066;2022-07-29T18:47:11;6.75;;;4.40;;
60582;SDS011;46415;47.536;19.066;2022-07-29T18:50:14;5.28;;;3.90;;
60582;SDS011;46415;47.536;19.066;2022-07-29T18:53:17;5.20;;;3.67;;
60582;SDS011;46415;47.536;19.066;2022-07-29T18:56:20;6.05;;;3.65;;
60582;SDS011;46415;47.536;19.066;2022-07-29T18:59:23;3.92;;;3.47;;
60582;SDS011;46415;47.536;19.066;2022-07-29T19:02:26;6.50;;;3.65;;
60582;SDS011;46415;47.536;19.066;2022-07-29T19:05:29;4.60;;;3.70;;
60582;SDS011;46415;47.536;19.066;2022-07-29T19:08:32;5.15;;;3.60;;
60582;SDS011;46415;47.536;19.066;2022-07-29T19:11:36;3.67;;;3.40;;
60582;SDS011;46415;47.536;19.066;2022-07-29T19:14:39;3.78;;;3.47;;
60582;SDS011;46415;47.536;19.066;2022-07-29T19:17:42;3.78;;;3.40;;
60582;SDS011;46415;47.536;19.066;2022-07-29T19:20:45;3.90;;;3.53;;